Time;durP1;ratioP1;P1;durP2;ratioP2;P2;SDS_P1;SDS_P2;PMS_P1;PMS_P2;Temp;Humidity;BMP_temperature;BMP_pressure;BME280_temperature;BME280_humidity;BME280_pressure;Samples;Min_cycle;Max_cycle;Signal;HPM_P1;HPM_P2
2021/07/23 00:02:19;;;;;;;22.77;9.68;;;19.30;99.90;;;19.83;77.51;101398.59;5095182;28;20195;-75
2021/07/23 00:04:46;;;;;;;20.92;9.02;;;19.30;99.90;;;19.81;77.84;101402.28;5094758;28;20198;-77
2021/07/23 00:07:13;;;;;;;19.50;9.10;;;19.30;99.90;;;19.79;77.77;101396.25;5093658;28;20277;-77
2021/07/23 00:09:40;;;;;;;19.90;9.65;;;19.30;99.90;;;19.74;77.69;101391.19;5095055;28;20204;-77
2021/07/23 00:12:07;;;;;;;18.95;9.05;;;19.20;99.90;;;19.74;77.91;101393.03;5095018;28;20550;-78
2021/07/23 00:14:36;;;;;;;17.02;8.40;;;19.20;99.90;;;19.73;78.13;101397.47;5094762;28;20211;-76
2021/07/23 00:17:03;;;;;;;20.02;9.93;;;19.20;99.90;;;19.73;78.24;101396.63;5093368;28;20194;-76
2021/07/23 00:19:30;;;;;;;18.60;8.73;;;19.10;99.90;;;19.69;78.18;101393.31;5093851;28;20703;-76
2021/07/23 00:21:58;;;;;;;18.88;8.82;;;19.10;99.90;;;19.68;78.31;101393.41;5093481;28;20192;-75
2021/07/23 00:24:25;;;;;;;19.75;9.18;;;19.10;99.90;;;19.64;78.20;101400.72;5093857;28;20254;-76
2021/07/23 00:26:52;;;;;;;19.35;9.30;;;19.10;99.90;;;19.59;78.66;101396.66;5093518;28;20648;-75
2021/07/23 00:29:19;;;;;;;22.23;8.82;;;19.00;99.90;;;19.58;78.49;101393.16;5094518;28;20214;-76
2021/07/23 00:31:48;;;;;;;20.75;9.02;;;19.00;99.90;;;19.57;79.21;101396.78;5094845;28;20188;-76
2021/07/23 00:34:14;;;;;;;20.73;9.68;;;19.00;99.90;;;19.57;79.23;101398.56;5094260;28;20695;-76
2021/07/23 00:36:41;;;;;;;21.98;9.68;;;19.00;99.90;;;19.56;79.01;101387.06;5093348;28;20568;-75
2021/07/23 00:39:08;;;;;;;21.05;9.05;;;19.00;99.90;;;19.54;79.08;101383.66;5093177;28;20592;-75
2021/07/23 00:41:37;;;;;;;21.55;10.30;;;19.00;99.90;;;19.54;79.35;101388.97;5093181;28;20219;-76
2021/07/23 00:44:04;;;;;;;20.25;9.45;;;19.00;99.90;;;19.52;79.34;101388.25;5110631;28;20196;-76
2021/07/23 00:46:33;;;;;;;18.27;9.43;;;19.00;99.90;;;19.51;79.59;101381.22;5110602;28;20211;-76
2021/07/23 00:49:01;;;;;;;25.98;10.98;;;18.90;99.90;;;19.50;79.47;101379.50;5093210;28;20222;-75
2021/07/23 00:51:28;;;;;;;23.10;9.63;;;18.90;99.90;;;19.48;79.83;101388.50;5094927;28;20199;-76
2021/07/23 00:53:57;;;;;;;22.50;10.15;;;18.90;99.90;;;19.46;79.59;101383.31;5111103;28;20674;-76
2021/07/23 00:56:26;;;;;;;20.63;10.15;;;18.90;99.90;;;19.46;79.68;101385.97;5115140;28;20202;-77
2021/07/23 00:58:54;;;;;;;21.10;9.52;;;18.90;99.90;;;19.45;79.95;101388.72;5107330;28;20207;-77
2021/07/23 01:01:23;;;;;;;21.52;9.63;;;18.80;99.90;;;19.43;80.24;101380.84;5093586;28;20202;-76
2021/07/23 01:03:51;;;;;;;23.05;10.68;;;18.90;99.90;;;19.42;80.36;101387.13;5112197;28;20195;-76
2021/07/23 01:06:19;;;;;;;17.25;8.90;;;18.80;99.90;;;19.39;80.64;101389.94;5114987;28;20199;-76
2021/07/23 01:08:46;;;;;;;19.10;9.20;;;18.80;99.90;;;19.38;80.80;101387.38;5116611;28;20687;-77
2021/07/23 01:11:16;;;;;;;19.10;9.18;;;18.80;99.90;;;19.38;80.57;101395.34;5111478;28;20568;-76
2021/07/23 01:14:05;;;;;;;21.20;10.15;;;18.80;99.90;;;19.35;80.98;101388.44;5115612;28;20283;-77
2021/07/23 01:16:32;;;;;;;20.30;9.25;;;18.80;99.90;;;19.36;80.80;101395.44;5134359;28;20198;-76
2021/07/23 01:18:59;;;;;;;22.15;9.93;;;18.80;99.90;;;19.35;80.73;101393.75;5117994;28;20214;-75
2021/07/23 01:21:29;;;;;;;20.17;10.20;;;18.80;99.90;;;19.37;80.74;101386.56;5116904;28;20179;-76
2021/07/23 01:23:59;;;;;;;25.70;10.60;;;18.80;99.90;;;19.39;80.51;101389.94;5116729;28;20195;-77
2021/07/23 01:26:44;;;;;;;24.40;11.05;;;18.80;99.90;;;19.41;81.03;101388.06;5112873;28;20667;-76
2021/07/23 01:29:13;;;;;;;22.25;10.90;;;18.80;99.90;;;19.41;80.64;101385.41;5093586;28;20241;-76
2021/07/23 01:31:42;;;;;;;23.75;10.73;;;18.80;99.90;;;19.39;80.50;101387.28;5093030;28;20689;-76
2021/07/23 01:34:09;;;;;;;20.17;9.82;;;18.80;99.90;;;19.38;80.68;101385.59;5093377;28;20215;-74
2021/07/23 01:36:36;;;;;;;22.67;10.30;;;18.80;99.90;;;19.38;80.79;101387.38;5094049;28;20596;-76
2021/07/23 01:39:06;;;;;;;23.52;10.55;;;18.80;99.90;;;19.37;81.14;101381.25;5094337;28;20672;-75
2021/07/23 01:41:37;;;;;;;25.40;10.52;;;18.80;99.90;;;19.35;80.99;101377.84;5097842;28;20258;-76
2021/07/23 01:44:06;;;;;;;20.27;9.98;;;18.80;99.90;;;19.36;80.82;101378.66;5096489;28;20438;-75
2021/07/23 01:46:33;;;;;;;25.67;10.25;;;18.80;99.90;;;19.35;80.98;101374.31;5094114;28;20188;-75
2021/07/23 01:49:08;;;;;;;24.42;10.75;;;18.80;99.90;;;19.34;81.33;101375.28;5095864;28;20589;-76
2021/07/23 01:51:39;;;;;;;21.65;9.90;;;18.80;99.90;;;19.34;81.02;101367.31;5096187;28;20187;-75
2021/07/23 01:54:16;;;;;;;25.17;9.57;;;18.80;99.90;;;19.31;80.67;101363.03;5096707;28;20221;-77
2021/07/23 01:56:47;;;;;;;22.77;10.15;;;18.70;99.90;;;19.31;81.09;101360.38;5098309;28;20188;-76
2021/07/23 01:59:18;;;;;;;18.55;9.57;;;18.70;99.90;;;19.28;81.20;101360.53;5097238;28;20214;-76
2021/07/23 02:01:45;;;;;;;20.92;9.05;;;18.70;99.90;;;19.30;81.02;101363.13;5096273;28;20203;-76
2021/07/23 02:04:27;;;;;;;19.63;10.00;;;18.70;99.90;;;19.30;81.39;101360.47;5096307;28;20274;-77
2021/07/23 02:06:54;;;;;;;23.95;9.88;;;18.70;99.90;;;19.30;81.33;101369.31;5099970;28;20198;-75
2021/07/23 02:09:25;;;;;;;21.05;9.38;;;18.70;99.90;;;19.30;81.40;101363.13;5097733;28;20206;-75
2021/07/23 02:11:55;;;;;;;20.13;9.00;;;18.70;99.90;;;19.29;81.56;101356.97;5096445;28;20188;-76
2021/07/23 02:14:28;;;;;;;23.10;10.20;;;18.70;99.90;;;19.30;81.96;101363.13;5092719;28;20215;-76
2021/07/23 02:16:55;;;;;;;19.60;9.52;;;18.70;99.90;;;19.29;81.91;101364.91;5111193;28;20195;-76
2021/07/23 02:19:22;;;;;;;22.98;9.10;;;18.70;99.90;;;19.27;82.19;101364.16;5097573;28;20213;-76
2021/07/23 02:21:53;;;;;;;25.25;9.93;;;18.70;99.90;;;19.28;82.04;101365.84;5097126;28;20244;-76
2021/07/23 02:24:20;;;;;;;18.70;9.45;;;18.70;99.90;;;19.27;81.79;101369.47;5097580;28;20229;-76
2021/07/23 02:26:48;;;;;;;18.00;9.07;;;18.70;99.90;;;19.27;81.87;101364.16;5095766;28;20244;-76
2021/07/23 02:29:17;;;;;;;19.25;9.85;;;18.70;99.90;;;19.27;81.60;101356.19;5097657;28;20206;-76
2021/07/23 02:31:47;;;;;;;21.17;9.63;;;18.70;99.90;;;19.28;81.51;101355.22;5095192;28;20196;-76
2021/07/23 02:34:22;;;;;;;21.50;10.23;;;18.70;99.90;;;19.27;81.13;101352.69;5096168;28;20207;-76
2021/07/23 02:36:50;;;;;;;20.52;8.85;;;18.70;99.90;;;19.26;80.65;101357.13;5103296;28;20636;-76
2021/07/23 02:39:23;;;;;;;19.20;9.10;;;18.70;99.90;;;19.24;80.82;101353.72;5101414;28;20699;-76
2021/07/23 02:41:57;;;;;;;22.83;9.80;;;18.70;99.90;;;19.23;80.83;101359.97;5103242;28;20250;-76
2021/07/23 02:44:25;;;;;;;20.17;9.82;;;18.70;99.90;;;19.21;80.61;101356.56;5105881;28;20254;-76
2021/07/23 02:46:52;;;;;;;22.83;10.32;;;18.70;99.90;;;19.17;80.75;101352.41;5104094;28;20243;-76
2021/07/23 02:49:21;;;;;;;21.88;10.45;;;18.70;99.90;;;19.15;80.90;101353.44;5106022;28;20210;-75
2021/07/23 02:51:50;;;;;;;20.48;9.73;;;18.60;99.90;;;19.13;81.00;101350.03;5099243;28;20199;-75
2021/07/23 02:54:17;;;;;;;25.35;10.00;;;18.60;99.90;;;19.10;80.84;101355.53;5096850;28;20195;-75
2021/07/23 02:56:44;;;;;;;21.15;9.57;;;18.60;99.90;;;19.07;81.06;101351.28;5096206;28;20191;-76
2021/07/23 02:59:13;;;;;;;19.40;9.25;;;18.60;99.90;;;19.03;81.36;101357.72;5094949;28;20265;-75
2021/07/23 03:01:43;;;;;;;24.02;9.27;;;18.50;99.90;;;18.98;81.51;101349.19;5095829;28;20199;-76
2021/07/23 03:04:14;;;;;;;23.60;9.55;;;18.50;99.90;;;18.96;81.55;101347.56;5096111;28;20180;-76
2021/07/23 03:06:40;;;;;;;22.42;9.65;;;18.50;99.90;;;18.94;81.71;101352.13;5096065;28;20191;-76
2021/07/23 03:09:09;;;;;;;19.73;10.00;;;18.50;99.90;;;18.91;81.77;101350.50;5096353;28;20247;-77
2021/07/23 03:11:36;;;;;;;22.30;9.95;;;18.40;99.90;;;18.92;82.09;101356.69;5096554;28;20195;-75
2021/07/23 03:14:07;;;;;;;21.20;10.25;;;18.40;99.90;;;18.89;82.17;101349.75;5096496;28;20171;-77
2021/07/23 03:16:45;;;;;;;20.08;9.27;;;18.40;99.90;;;18.88;82.44;101356.00;5110942;28;20198;-75
2021/07/23 03:19:12;;;;;;;20.80;9.45;;;18.40;99.90;;;18.86;82.53;101352.59;5094029;28;20258;-75
2021/07/23 03:21:40;;;;;;;19.88;9.73;;;18.40;99.90;;;18.85;82.55;101356.22;5093934;28;20187;-76
2021/07/23 03:24:10;;;;;;;19.63;9.90;;;18.40;99.90;;;18.84;82.72;101353.66;5095312;28;20183;-75
2021/07/23 03:26:37;;;;;;;25.13;10.85;;;18.40;99.90;;;18.81;82.75;101349.38;5094164;28;20183;-75
2021/07/23 03:29:08;;;;;;;20.98;10.27;;;18.40;99.90;;;18.79;82.90;101345.94;5093856;28;20276;-75
2021/07/23 03:31:37;;;;;;;21.60;10.40;;;18.40;99.90;;;18.77;83.23;101354.00;5093964;28;20201;-75
2021/07/23 03:34:19;;;;;;;21.83;9.65;;;18.30;99.90;;;18.73;83.08;101349.84;5093960;28;20274;-75
2021/07/23 03:36:57;;;;;;;21.50;10.32;;;18.30;99.90;;;18.73;83.42;101347.19;5094556;28;20195;-76
2021/07/23 03:39:46;;;;;;;23.33;10.68;;;18.30;99.90;;;18.72;83.47;101347.31;5095285;28;20241;-75
2021/07/23 03:42:17;;;;;;;23.38;11.45;;;18.30;99.90;;;18.70;83.57;101352.66;5095701;28;20202;-75
2021/07/23 03:44:54;;;;;;;19.88;10.18;;;18.30;99.90;;;18.69;83.46;101350.13;5095588;28;20195;-74
2021/07/23 03:47:21;;;;;;;20.45;10.73;;;18.30;99.90;;;18.66;83.56;101348.50;5111205;28;20248;-75
2021/07/23 03:49:49;;;;;;;23.05;11.38;;;18.20;99.90;;;18.63;83.48;101351.34;5095370;28;20203;-76
2021/07/23 03:52:18;;;;;;;21.90;11.20;;;18.20;99.90;;;18.62;83.70;101343.50;5094963;28;20192;-75
2021/07/23 03:55:06;;;;;;;22.00;11.52;;;18.20;99.90;;;18.60;83.78;101348.03;5094595;28;20272;-76
2021/07/23 03:57:33;;;;;;;24.23;11.20;;;18.20;99.90;;;18.59;83.42;101344.53;5110223;28;20225;-75
2021/07/23 04:00:00;;;;;;;22.35;10.60;;;18.20;99.90;;;18.58;84.02;101347.28;5093637;28;20211;-76
2021/07/23 04:02:27;;;;;;;23.95;10.77;;;18.20;99.90;;;18.56;84.00;101339.41;5093170;28;20576;-75
2021/07/23 04:04:56;;;;;;;24.63;10.75;;;18.10;99.90;;;18.57;84.26;101340.28;5093489;28;20195;-75
2021/07/23 04:07:22;;;;;;;23.23;10.73;;;18.20;99.90;;;18.56;84.09;101350.03;5094396;28;20556;-76
2021/07/23 04:09:49;;;;;;;21.33;10.15;;;18.20;99.90;;;18.58;84.49;101341.97;5093449;28;20231;-76
2021/07/23 04:12:18;;;;;;;22.90;11.52;;;18.20;99.90;;;18.58;84.17;101342.84;5093562;28;20237;-76
2021/07/23 04:14:45;;;;;;;25.42;11.45;;;18.20;99.90;;;18.60;84.15;101345.38;5094644;28;20221;-75
2021/07/23 04:17:12;;;;;;;24.90;10.88;;;18.20;99.90;;;18.60;84.39;101340.09;5100027;28;20187;-76
2021/07/23 04:19:39;;;;;;;26.65;11.80;;;18.20;99.90;;;18.62;84.37;101336.38;5102526;28;20207;-76
2021/07/23 04:22:09;;;;;;;23.67;10.98;;;18.20;99.90;;;18.63;84.33;101338.09;5100951;28;20183;-76
2021/07/23 04:24:45;;;;;;;23.38;10.77;;;18.20;99.90;;;18.66;84.39;101350.31;5093265;28;20267;-76
2021/07/23 04:27:13;;;;;;;20.40;10.00;;;18.30;99.90;;;18.72;84.42;101349.94;5092707;28;20195;-75
2021/07/23 04:29:50;;;;;;;23.13;10.30;;;18.30;99.90;;;18.79;84.23;101339.81;5092549;28;20238;-76
2021/07/23 04:32:18;;;;;;;23.35;10.82;;;18.40;99.90;;;18.83;84.27;101346.63;5093850;28;20183;-76
2021/07/23 04:34:45;;;;;;;26.90;11.63;;;18.40;99.90;;;18.83;84.03;101344.81;5093783;28;20256;-76
2021/07/23 04:37:19;;;;;;;22.75;11.40;;;18.50;99.90;;;18.85;83.93;101344.72;5092682;28;20183;-76
2021/07/23 04:39:57;;;;;;;23.40;11.10;;;18.50;99.90;;;18.85;84.16;101336.78;5092222;28;20280;-75
2021/07/23 04:42:24;;;;;;;21.08;10.63;;;18.50;99.90;;;18.84;83.71;101340.38;5092409;28;20187;-76
2021/07/23 04:44:51;;;;;;;24.50;11.07;;;18.50;99.90;;;18.82;83.87;101340.47;5092521;28;20199;-76
2021/07/23 04:47:18;;;;;;;20.92;10.73;;;18.40;99.90;;;18.83;84.17;101344.81;5109157;28;20199;-76
2021/07/23 04:49:47;;;;;;;22.48;11.10;;;18.40;99.90;;;18.88;84.26;101340.09;5109190;28;20239;-76
2021/07/23 04:52:44;;;;;;;22.48;11.20;;;18.50;99.90;;;18.95;84.04;101340.56;5093198;28;20192;-76
2021/07/23 04:55:34;;;;;;;23.05;10.48;;;18.60;99.90;;;19.02;83.78;101342.75;5093293;28;20211;-76
2021/07/23 04:58:13;;;;;;;24.42;11.40;;;18.70;99.90;;;19.08;83.89;101333.53;5091954;28;20249;-76
2021/07/23 05:00:40;;;;;;;28.25;11.70;;;18.70;99.90;;;19.10;83.57;101345.78;5092102;28;20195;-76
2021/07/23 05:03:06;;;;;;;25.63;11.13;;;18.80;99.90;;;19.11;83.64;101342.16;5092244;28;20282;-77
2021/07/23 05:05:35;;;;;;;26.92;12.35;;;18.80;99.90;;;19.14;83.77;101347.28;5092998;28;20191;-76
2021/07/23 05:08:04;;;;;;;26.80;11.60;;;18.90;99.90;;;19.16;84.16;101344.53;5108764;28;20211;-76
2021/07/23 05:10:33;;;;;;;24.77;11.32;;;18.90;99.90;;;19.17;83.93;101341.78;5092018;28;20278;-77
2021/07/23 05:13:00;;;;;;;23.40;10.68;;;18.90;99.90;;;19.16;83.75;101345.38;5109044;28;20217;-76
2021/07/23 05:15:26;;;;;;;23.20;11.90;;;18.90;99.90;;;19.16;83.61;101349.81;5092151;28;20605;-75
2021/07/23 05:17:53;;;;;;;24.08;11.25;;;18.90;99.90;;;19.15;83.40;101349.00;5108666;28;20245;-76
2021/07/23 05:20:20;;;;;;;22.45;10.88;;;18.90;99.90;;;19.13;83.67;101342.06;5093053;28;20179;-76
2021/07/23 05:22:47;;;;;;;25.35;10.57;;;18.80;99.90;;;19.12;83.56;101345.69;5109015;28;20198;-77
2021/07/23 05:25:15;;;;;;;21.75;10.55;;;18.80;99.90;;;19.10;83.84;101337.81;5093135;28;20194;-76
2021/07/23 05:27:42;;;;;;;22.38;11.05;;;18.80;99.90;;;19.11;84.01;101346.59;5108600;28;20664;-76
2021/07/23 05:30:09;;;;;;;20.70;10.95;;;18.80;99.90;;;19.11;83.76;101342.16;5108864;28;20195;-76
2021/07/23 05:32:36;;;;;;;22.25;11.18;;;18.80;99.90;;;19.12;83.80;101338.59;5092073;28;20449;-76
2021/07/23 05:35:04;;;;;;;24.08;11.75;;;18.80;99.90;;;19.13;84.01;101337.63;5108484;28;20199;-76
2021/07/23 05:37:32;;;;;;;22.27;11.98;;;18.80;99.90;;;19.13;83.58;101340.28;5108497;28;20462;-76
2021/07/23 05:39:59;;;;;;;23.33;11.30;;;18.90;99.90;;;19.12;83.85;101343.88;5092568;28;20237;-76
2021/07/23 05:42:27;;;;;;;25.90;11.90;;;18.80;99.90;;;19.13;83.75;101345.56;5091367;28;20659;-77
2021/07/23 05:44:55;;;;;;;26.80;11.38;;;18.80;99.90;;;19.18;83.78;101338.19;5091444;28;20648;-77
2021/07/23 05:47:22;;;;;;;27.35;11.52;;;18.90;99.90;;;19.23;83.45;101343.19;5091258;28;20202;-77
2021/07/23 05:49:49;;;;;;;24.27;11.63;;;19.00;99.90;;;19.24;83.62;101339.59;5108331;28;20568;-77
2021/07/23 05:52:15;;;;;;;26.45;12.35;;;19.00;99.90;;;19.27;83.25;101332.31;5108517;28;20187;-77
2021/07/23 05:54:42;;;;;;;24.55;12.05;;;19.00;99.90;;;19.32;83.15;101343.50;5091329;28;20652;-77
2021/07/23 05:57:09;;;;;;;22.42;10.85;;;19.10;99.90;;;19.36;83.18;101334.38;5090985;28;20763;-77
2021/07/23 05:59:37;;;;;;;27.65;12.55;;;19.10;99.90;;;19.40;82.52;101335.91;5091472;28;20215;-78
2021/07/23 06:02:04;;;;;;;25.05;12.30;;;19.20;99.90;;;19.48;82.65;101341.56;5091099;28;20206;-77
2021/07/23 06:04:31;;;;;;;25.23;12.10;;;19.20;99.90;;;19.51;82.62;101330.75;5092420;28;20195;-76
2021/07/23 06:06:58;;;;;;;25.30;11.50;;;19.30;99.90;;;19.56;82.04;101339.28;5108227;28;20195;-76
2021/07/23 06:09:25;;;;;;;23.50;11.60;;;19.30;99.90;;;19.59;81.94;101328.44;5092142;28;20207;-76
2021/07/23 06:11:51;;;;;;;21.33;10.95;;;19.30;99.90;;;19.63;81.62;101332.63;5092283;28;20563;-75
2021/07/23 06:14:18;;;;;;;29.10;13.23;;;19.30;99.90;;;19.69;81.67;101332.19;5109446;28;20187;-76
2021/07/23 06:16:46;;;;;;;24.05;11.52;;;19.30;99.90;;;19.72;81.33;101334.69;5091845;28;20207;-75
2021/07/23 06:19:13;;;;;;;28.02;11.90;;;19.40;99.90;;;19.78;80.98;101334.28;5091918;28;20204;-76
2021/07/23 06:21:39;;;;;;;24.10;10.82;;;19.40;99.90;;;19.85;81.03;101330.25;5090819;28;20198;-76
2021/07/23 06:24:06;;;;;;;22.25;11.05;;;19.50;99.90;;;19.92;80.93;101331.56;5092518;28;20645;-76
2021/07/23 06:26:37;;;;;;;29.63;10.77;;;19.60;99.90;;;19.98;80.35;101333.81;5107504;28;20187;-76
2021/07/23 06:29:04;;;;;;;23.45;9.68;;;19.70;99.90;;;20.03;79.98;101338.81;5092420;28;20679;-75
2021/07/23 06:31:31;;;;;;;22.15;9.30;;;19.70;99.90;;;20.08;79.19;101341.19;5090723;28;20191;-76
2021/07/23 06:33:59;;;;;;;26.20;9.55;;;19.80;99.90;;;20.13;78.48;101329.25;5090609;28;20191;-76
2021/07/23 06:36:26;;;;;;;23.05;8.77;;;19.80;99.90;;;20.20;78.29;101345.69;5090502;28;20219;-77
2021/07/23 06:38:53;;;;;;;19.83;8.80;;;19.90;99.90;;;20.27;77.16;101350.50;5090731;28;20260;-76
2021/07/23 06:41:20;;;;;;;17.13;9.07;;;20.00;99.90;;;20.33;76.36;101346.59;5092021;28;20183;-76
2021/07/23 06:43:46;;;;;;;20.92;9.15;;;20.00;99.90;;;20.40;76.36;101350.50;5091911;28;20195;-76
2021/07/23 06:46:13;;;;;;;18.23;8.52;;;20.10;99.90;;;20.48;75.80;101346.38;5090384;28;20674;-76
2021/07/23 06:48:40;;;;;;;20.27;8.63;;;20.10;99.90;;;20.50;75.61;101343.59;5090984;28;20222;-76
2021/07/23 06:51:08;;;;;;;17.30;7.60;;;20.20;99.90;;;20.52;75.81;101342.56;5092498;28;20191;-76
2021/07/23 06:53:35;;;;;;;15.48;8.23;;;20.20;99.90;;;20.53;75.70;101348.75;5091453;28;20240;-76
2021/07/23 06:56:04;;;;;;;18.13;8.80;;;20.30;99.90;;;20.57;75.68;101350.22;5100682;28;20217;-77
2021/07/23 06:58:30;;;;;;;18.77;8.38;;;20.30;99.90;;;20.61;75.39;101352.56;5108324;28;20231;-76
2021/07/23 07:01:04;;;;;;;16.75;7.68;;;20.40;99.90;;;20.71;74.67;101342.13;5092035;28;20233;-76
2021/07/23 07:03:30;;;;;;;20.55;8.43;;;20.50;99.90;;;20.78;74.45;101348.75;5094536;28;20187;-77
2021/07/23 07:05:58;;;;;;;22.17;9.23;;;20.60;99.90;;;20.85;74.22;101344.66;5095759;28;20248;-76
2021/07/23 07:08:26;;;;;;;19.30;8.38;;;20.60;99.90;;;20.87;73.87;101348.09;5092061;28;20307;-77
2021/07/23 07:10:53;;;;;;;16.90;8.18;;;20.70;99.90;;;20.90;74.05;101338.06;5094937;28;20222;-77
2021/07/23 07:13:20;;;;;;;21.20;8.80;;;20.70;99.90;;;20.95;73.65;101341.28;5096723;28;20180;-77
2021/07/23 07:15:47;;;;;;;22.80;9.43;;;20.80;99.90;;;21.02;73.25;101336.38;5094064;28;20496;-75
2021/07/23 07:18:13;;;;;;;20.20;8.15;;;20.90;99.90;;;21.07;73.07;101340.44;5096538;28;20211;-75
2021/07/23 07:20:40;;;;;;;24.08;8.48;;;20.90;99.90;;;21.14;72.74;101336.38;5110073;28;20187;-76
2021/07/23 07:23:07;;;;;;;17.98;7.60;;;21.00;99.90;;;21.21;72.72;101334.13;5106960;28;20191;-76
2021/07/23 07:25:35;;;;;;;18.10;8.15;;;21.10;99.90;;;21.26;72.04;101337.31;5110181;28;20183;-76
2021/07/23 07:28:02;;;;;;;16.90;7.90;;;21.20;99.90;;;21.29;71.46;101341.56;5108862;28;20204;-77
2021/07/23 07:30:29;;;;;;;15.73;7.75;;;21.20;99.90;;;21.29;70.30;101341.56;5097760;28;20190;-76
2021/07/23 07:32:56;;;;;;;14.20;6.47;;;21.20;99.90;;;21.30;69.49;101337.94;5100006;28;20655;-77
2021/07/23 07:35:23;;;;;;;17.98;6.93;;;21.20;99.90;;;21.31;68.33;101335.19;5100895;28;20195;-76
2021/07/23 07:37:50;;;;;;;17.20;7.10;;;21.20;99.90;;;21.35;67.99;101333.16;5104895;28;20183;-76
2021/07/23 07:40:17;;;;;;;16.55;7.55;;;21.20;99.90;;;21.42;67.22;101334.41;5113553;28;20194;-78
2021/07/23 07:42:45;;;;;;;15.00;6.72;;;21.30;99.90;;;21.52;66.09;101346.09;5115105;28;20251;-77
2021/07/23 07:45:12;;;;;;;34.72;9.27;;;21.30;99.90;;;21.57;65.93;101339.44;5115524;28;20191;-75
2021/07/23 07:47:39;;;;;;;56.75;11.52;;;21.40;99.90;;;21.64;65.45;101340.72;5094667;28;20195;-76
2021/07/23 07:50:09;;;;;;;84.18;14.00;;;21.50;99.90;;;21.75;65.34;101343.41;5094948;28;20183;-76
2021/07/23 07:52:36;;;;;;;24.42;7.60;;;21.60;99.90;;;21.86;65.18;101340.88;5093834;28;20198;-76
2021/07/23 07:55:03;;;;;;;16.42;5.65;;;21.80;99.90;;;21.96;64.06;101346.34;5093530;28;20195;-77
2021/07/23 07:57:30;;;;;;;16.63;7.22;;;21.90;99.90;;;22.05;63.46;101346.50;5114545;28;20586;-75
2021/07/23 07:59:58;;;;;;;16.33;6.68;;;22.10;99.90;;;22.10;63.46;101347.00;5093686;28;20257;-77
2021/07/23 08:02:25;;;;;;;11.68;5.50;;;22.10;99.90;;;22.06;62.97;101340.22;5093786;28;20222;-77
2021/07/23 08:04:51;;;;;;;13.43;5.65;;;22.10;99.90;;;22.02;62.71;101341.41;5094452;28;20184;-77
2021/07/23 08:07:21;;;;;;;14.50;5.40;;;22.10;99.90;;;21.96;62.51;101346.34;5093561;28;20202;-77
2021/07/23 08:09:52;;;;;;;12.40;5.22;;;22.00;99.90;;;21.96;62.80;101347.22;5093493;28;20211;-76
2021/07/23 08:12:20;;;;;;;13.48;5.60;;;22.00;99.90;;;21.98;62.69;101350.63;5093800;28;20187;-76
2021/07/23 08:14:47;;;;;;;14.20;6.55;;;22.00;99.90;;;21.99;62.97;101352.31;5093190;28;20187;-76
2021/07/23 08:17:16;;;;;;;17.42;7.00;;;22.00;99.90;;;22.03;63.48;101347.59;5092909;28;20216;-76
2021/07/23 08:19:43;;;;;;;12.65;5.40;;;22.00;99.90;;;22.05;63.18;101351.84;5094143;28;20218;-76
2021/07/23 08:22:10;;;;;;;12.10;5.82;;;22.10;99.90;;;22.15;63.66;101347.53;5092885;28;20192;-78
2021/07/23 08:24:38;;;;;;;12.88;6.00;;;22.20;99.90;;;22.24;63.64;101352.16;5093232;28;20198;-76
2021/07/23 08:27:05;;;;;;;11.82;5.82;;;22.30;99.90;;;22.31;63.20;101347.22;5094369;28;20183;-77
2021/07/23 08:29:32;;;;;;;13.75;5.63;;;22.50;99.90;;;22.35;63.29;101349.53;5094026;28;20211;-76
2021/07/23 08:32:06;;;;;;;14.20;5.43;;;22.50;99.90;;;22.34;63.39;101347.84;5093329;28;20556;-76
2021/07/23 08:34:35;;;;;;;14.55;5.88;;;22.50;99.90;;;22.28;63.53;101350.97;5092742;28;20663;-77
2021/07/23 08:37:03;;;;;;;13.65;6.05;;;22.50;99.90;;;22.19;63.45;101343.66;5093381;28;20360;-78
2021/07/23 08:39:30;;;;;;;11.77;5.60;;;22.30;99.90;;;22.19;63.47;101343.66;5092512;28;20592;-77
2021/07/23 08:41:57;;;;;;;11.38;4.95;;;22.30;99.90;;;22.24;63.85;101341.50;5092418;28;20187;-76
2021/07/23 08:44:25;;;;;;;11.10;5.30;;;22.30;99.90;;;22.30;63.46;101346.34;5093827;28;20187;-77
2021/07/23 08:46:52;;;;;;;14.02;5.88;;;22.40;99.90;;;22.33;62.81;101340.81;5092664;28;20195;-77
2021/07/23 08:49:19;;;;;;;11.25;5.47;;;22.50;99.90;;;22.43;62.31;101340.94;5092655;28;20207;-76
2021/07/23 08:51:51;;;;;;;11.00;5.25;;;22.60;99.90;;;22.55;61.86;101344.53;5092728;28;20183;-76
2021/07/23 08:54:18;;;;;;;12.10;5.38;;;22.70;99.90;;;22.52;61.64;101339.41;5094381;28;20541;-77
2021/07/23 08:56:48;;;;;;;11.68;5.07;;;22.60;99.90;;;22.53;61.62;101347.31;5092088;28;20216;-78
2021/07/23 08:59:16;;;;;;;12.90;5.30;;;22.70;99.90;;;22.55;61.80;101342.72;5092365;28;20207;-77
2021/07/23 09:01:57;;;;;;;12.88;4.95;;;22.70;99.90;;;22.55;62.01;101342.72;5092532;28;20207;-76
2021/07/23 09:04:28;;;;;;;11.43;5.32;;;22.70;99.90;;;22.51;62.31;101332.34;5091951;28;20683;-76
2021/07/23 09:10:05;;;;;;;12.80;5.53;;;22.60;99.90;;;22.66;61.65;101329.38;5085290;27;1154116;-77
2021/07/23 09:12:43;;;;;;;12.57;5.57;;;22.80;99.90;;;22.81;61.78;101324.66;5091710;28;20607;-76
2021/07/23 09:15:28;;;;;;;13.15;5.55;;;22.90;99.90;;;22.91;61.59;101325.63;5091747;28;20198;-77
2021/07/23 09:17:56;;;;;;;16.73;6.47;;;23.10;99.90;;;23.01;61.06;101327.44;5091592;28;20191;-76
2021/07/23 09:20:26;;;;;;;22.80;6.35;;;23.20;99.90;;;23.17;60.49;101322.59;5092274;28;20393;-77
2021/07/23 09:22:55;;;;;;;14.40;6.00;;;23.40;99.90;;;23.27;60.51;101322.75;5092902;28;20199;-76
2021/07/23 09:25:45;;;;;;;11.82;5.07;;;23.60;99.90;;;23.28;60.45;101309.25;5091673;28;20190;-76
2021/07/23 09:28:30;;;;;;;10.70;5.32;;;23.70;99.90;;;23.34;60.41;101314.09;5109837;28;20301;-76
2021/07/23 09:30:59;;;;;;;13.50;5.60;;;23.70;99.90;;;23.44;59.96;101308.88;5110383;28;20270;-77
2021/07/23 09:33:33;;;;;;;12.43;6.05;;;23.90;99.90;;;23.50;60.09;101306.53;5091645;28;20586;-76
2021/07/23 09:36:03;;;;;;;13.23;6.07;;;24.00;99.90;;;23.53;59.68;101302.75;5091878;28;20193;-78
2021/07/23 09:38:41;;;;;;;12.65;6.03;;;24.00;99.90;;;23.58;59.69;101316.59;5091482;28;20255;-77
2021/07/23 09:41:13;;;;;;;13.93;6.90;;;24.00;99.90;;;23.63;59.95;101303.69;5109598;28;20186;-76
2021/07/23 09:43:42;;;;;;;15.70;6.13;;;24.10;99.90;;;23.60;60.01;101298.59;5091050;28;20202;-76
2021/07/23 09:46:33;;;;;;;15.30;7.47;;;24.10;99.90;;;23.47;59.86;101297.91;5108901;28;20218;-76
2021/07/23 09:49:02;;;;;;;12.95;6.97;;;23.90;99.90;;;23.32;60.80;101294.69;5091029;28;20221;-76
2021/07/23 09:51:30;;;;;;;12.25;6.20;;;23.80;99.90;;;23.19;60.96;101299.25;5109297;28;20210;-78
2021/07/23 09:53:58;;;;;;;13.02;6.55;;;23.60;99.90;;;23.05;60.86;101299.53;5091216;28;20190;-77
2021/07/23 09:56:28;;;;;;;12.98;6.60;;;23.40;99.90;;;22.94;60.74;101301.38;5090602;28;20191;-77
2021/07/23 09:59:03;;;;;;;12.93;6.53;;;23.20;99.90;;;22.84;60.72;101292.38;5109312;28;20214;-76
2021/07/23 10:01:37;;;;;;;14.70;6.75;;;23.00;99.90;;;22.78;60.72;101290.19;5090713;28;20201;-76
2021/07/23 10:04:19;;;;;;;62.80;12.85;;;22.80;99.90;;;22.86;61.31;101295.75;5090540;28;20550;-76
2021/07/23 10:06:57;;;;;;;17.48;7.85;;;22.90;99.90;;;22.99;60.78;101294.66;5090240;28;20195;-75
2021/07/23 10:09:30;;;;;;;27.90;8.40;;;23.00;99.90;;;23.08;59.54;101280.59;5108791;28;20223;-76
2021/07/23 10:11:59;;;;;;;20.45;7.28;;;23.10;99.90;;;23.21;59.97;101285.81;5091291;28;20536;-78
2021/07/23 10:14:29;;;;;;;22.02;10.68;;;23.30;99.90;;;23.37;59.54;101281.78;5090752;28;20220;-78
2021/07/23 10:16:56;;;;;;;17.23;9.43;;;23.50;99.90;;;23.55;58.95;101282.09;5108569;28;20186;-77